Airfield :
LOGIN :

Register | Disclaimer

   EN    FR    IT 

 










Legend :    VFR   Marginal VFR   IFR   Intensive IFR   Very Intensive IFR
Visi :
Ceiling :
>= 8 km
>= 3000ft
5 to 8 km
1000 to 3000 ft
1500m to 5 km
500 to 1000 ft
800 to 1500m
200 to 500 ft
< 800m
< 200 ft
Symbols :   Thunderstorms  Fog  Heavy snow  Heavy precipitations  Wind > 20 kt
SIGMETs :     Misc.  Thunderstorms  Icing  Turbulence  Mountain Waves  Volcanic Ashes







- Airport Elevation : 2026 ft
- IATA code : TOJ


LETO - Madrid Torrejon

CURRENT METAR :
  • 210700Z 04005KT 9999 FEW065 15/13 Q1023 NOSIG

EXPIRED METARs :
  • 210600Z 06005KT 9999 FEW040 14/13 Q1022 NOSIG
  • 210500Z 03005KT 9999 FEW040 14/13 Q1022 NOSIG

TAF TAF LETO
Valid from the 21 at 06:00 until the 22 at 06:00 UTC


210500Z 2106/2206 04006KT 9999 FEW040 TX21/2115Z TN11/2206Z
PROB30
TEMPO 2106/2116 RA FEW040TCU
No reported NOTAMs for that airfield.
2 SIGMETs reported for the Madrid FIR (LECM) :
 
Frequent thunderstorms
LECM SIGMET 5 VALID 210800/211000 LEVA
LECM MADRID FIR/UIR FRQ TS FCST WI N3625 W00619 - N3732 W00457 - N3711 W00412 - N3558 W00517 - N3625 W00619 TOP FL380 STNR NC=
Frequent thunderstorms
LECM SIGMET 4 VALID 210500/210800 LEVA
LECM MADRID FIR/UIR FRQ TS OBS AT 0258Z WI N3634 W00525 - N3735 W00510 - N3729 W00408 - N3629 W00437 - N3634 W00525 TOP FL380 STNR NC=



MET'MAP, your aeronautical weather chart ! - Copyright ORBIFLY December 2007 - Disclaimer

ORBIFLY MET'MAP TEAM :

Programming & Development : Alexandra Zaïnal
Concept & Development : Baudouin d'Aumeries
Co-Development & Prog : Marc-Olivier Méhu
Technical & hardware support : Manuel Goepfert

Contact : metmap@orbifly.com




SOURCES & CREDITS :

   NOAA